createdAt,value
2022-08-05T00:00:33.294Z,75.94
2022-08-05T00:01:36.184Z,75.74
2022-08-05T00:02:33.257Z,76.04
2022-08-05T00:03:32.196Z,76.04
2022-08-05T00:04:32.182Z,76.04
2022-08-05T00:06:06.449Z,76.24
2022-08-05T00:06:36.035Z,76.04
2022-08-05T00:08:00.351Z,76.34
2022-08-05T00:08:35.519Z,77.27
2022-08-05T00:09:32.134Z,76.43
2022-08-05T00:10:32.122Z,76.83
2022-08-05T00:11:35.012Z,76.64
2022-08-05T00:12:33.110Z,77.53
2022-08-05T00:13:39.428Z,77.73
2022-08-05T00:14:33.083Z,76.57
2022-08-05T00:15:55.132Z,76.34
2022-08-05T00:16:36.304Z,76.97
2022-08-05T00:17:33.426Z,77.43
2022-08-05T00:18:32.053Z,77.77
2022-08-05T00:19:33.638Z,77.47
2022-08-05T00:20:33.014Z,77.57
2022-08-05T00:21:35.619Z,77.77
2022-08-05T00:22:31.992Z,77.57
2022-08-05T00:23:46.288Z,77.47
2022-08-05T00:24:32.990Z,78.17
2022-08-05T00:25:41.581Z,77.47
2022-08-05T00:26:32.943Z,77.63
2022-08-05T00:27:36.208Z,77.63
2022-08-05T00:28:31.927Z,77.67
2022-08-05T00:29:37.708Z,77.37
2022-08-05T00:30:32.922Z,77.87
2022-08-05T00:31:54.223Z,77.97
2022-08-05T00:32:32.875Z,77.57
2022-08-05T00:34:53.307Z,78.13
2022-08-05T00:34:54.815Z,77.97
2022-08-05T00:35:33.420Z,77.77
2022-08-05T00:37:11.367Z,77.87
2022-08-05T00:37:35.474Z,77.97
2022-08-05T00:38:33.883Z,77.87
2022-08-05T00:39:37.092Z,77.77
2022-08-05T00:40:32.800Z,78.27
2022-08-05T00:41:54.977Z,78.17
2022-08-05T00:42:32.911Z,78.37
2022-08-05T00:43:47.336Z,78.56
2022-08-05T00:44:32.744Z,78.17
2022-08-05T00:45:43.075Z,78.47
2022-08-05T00:46:36.962Z,79.20
2022-08-05T00:47:56.285Z,78.90
2022-08-05T00:48:32.730Z,78.50
2022-08-05T00:49:51.066Z,78.80
2022-08-05T00:50:32.677Z,79.40
2022-08-05T00:51:50.654Z,78.80
2022-08-05T00:52:32.663Z,78.50
2022-08-05T00:53:45.454Z,79.60
2022-08-05T00:54:32.660Z,79.50
2022-08-05T00:55:34.109Z,79.50
2022-08-05T00:56:32.620Z,79.50
2022-08-05T00:57:38.324Z,79.70
2022-08-05T00:58:32.592Z,80.00
2022-08-05T00:59:42.023Z,79.20
2022-08-05T01:00:32.644Z,79.70
2022-08-05T01:01:42.447Z,79.70
2022-08-05T01:02:32.555Z,80.04
2022-08-05T01:03:33.473Z,80.00
2022-08-05T01:04:31.535Z,79.94
2022-08-05T01:05:31.521Z,80.24
2022-08-05T01:06:32.698Z,80.54
2022-08-05T01:07:31.968Z,80.64
2022-08-05T01:08:43.183Z,80.54
2022-08-05T01:09:32.469Z,80.54
2022-08-05T01:10:31.468Z,80.54
2022-08-05T01:11:36.682Z,80.54
2022-08-05T01:12:32.464Z,80.64
2022-08-05T01:13:57.677Z,79.94
2022-08-05T01:14:32.423Z,80.64
2022-08-05T01:15:36.077Z,80.44
2022-08-05T01:16:32.394Z,80.44
2022-08-05T01:17:31.384Z,80.34
2022-08-05T01:18:32.394Z,80.50
2022-08-05T01:19:56.107Z,80.50
2022-08-05T01:20:32.349Z,80.20
2022-08-05T01:21:38.243Z,80.14
2022-08-05T01:22:32.329Z,80.24
2022-08-05T01:23:34.551Z,80.64
2022-08-05T01:24:31.325Z,80.88
2022-08-05T01:25:39.595Z,81.04
2022-08-05T01:26:32.290Z,80.83
2022-08-05T01:27:33.052Z,80.04
2022-08-05T01:28:31.269Z,80.54
2022-08-05T01:29:31.250Z,80.54
2022-08-05T01:30:33.639Z,80.74
2022-08-05T01:31:31.249Z,81.54
2022-08-05T01:32:31.218Z,81.13
2022-08-05T01:33:35.430Z,80.64
2022-08-05T01:34:31.196Z,80.74
2022-08-05T01:35:52.038Z,81.43
2022-08-05T01:36:32.190Z,80.74
2022-08-05T01:37:31.578Z,81.04
2022-08-05T01:38:31.188Z,81.43
2022-08-05T01:39:46.666Z,81.34
2022-08-05T01:40:32.130Z,81.24
2022-08-05T01:41:31.120Z,81.13
2022-08-05T01:42:31.132Z,81.73
2022-08-05T01:43:31.096Z,80.74
2022-08-05T01:44:34.496Z,80.83
2022-08-05T01:45:35.035Z,81.24
2022-08-05T01:46:42.886Z,81.63
2022-08-05T01:47:39.052Z,80.14
2022-08-05T01:48:32.044Z,80.54
2022-08-05T01:50:00.564Z,80.04
2022-08-05T01:50:32.020Z,79.84
2022-08-05T01:51:31.010Z,79.94
2022-08-05T01:52:31.018Z,79.94
2022-08-05T01:53:57.791Z,79.97
2022-08-05T01:54:31.976Z,79.88
2022-08-05T01:55:30.966Z,79.54
2022-08-05T01:58:10.132Z,79.74
2022-08-05T01:58:11.869Z,79.17
2022-08-05T01:58:44.833Z,79.14
2022-08-05T01:59:31.928Z,78.78
2022-08-05T02:00:31.133Z,78.98
2022-08-05T02:01:37.937Z,78.68
2022-08-05T02:02:31.967Z,79.58
2022-08-05T02:03:31.805Z,79.11
2022-08-05T02:04:30.871Z,79.68
2022-08-05T02:05:30.869Z,79.28
2022-08-05T02:06:37.380Z,79.28
2022-08-05T02:07:31.831Z,79.48
2022-08-05T02:08:31.645Z,79.58
2022-08-05T02:09:30.811Z,79.68
2022-08-05T02:10:30.831Z,79.88
2022-08-05T02:11:32.846Z,80.08
2022-08-05T02:12:32.845Z,79.68
2022-08-05T02:13:36.421Z,79.41
2022-08-05T02:14:31.938Z,79.82
2022-08-05T02:15:33.571Z,79.72
2022-08-05T02:16:30.740Z,79.61
2022-08-05T02:18:31.017Z,79.72
2022-08-05T02:18:35.245Z,79.52
2022-08-05T02:19:34.188Z,79.61
2022-08-05T02:20:30.705Z,79.82
2022-08-05T02:21:31.703Z,80.02
2022-08-05T02:22:31.664Z,80.41
2022-08-05T02:23:33.754Z,80.05
2022-08-05T02:24:31.651Z,79.85
2022-08-05T02:25:33.412Z,79.99
2022-08-05T02:26:31.627Z,80.65
2022-08-05T02:27:59.303Z,80.55
2022-08-05T02:28:36.414Z,80.29
2022-08-05T02:29:59.674Z,80.85
2022-08-05T02:30:31.595Z,81.59
2022-08-05T02:31:35.035Z,81.39
2022-08-05T02:32:31.494Z,81.69
2022-08-05T02:33:36.250Z,83.19
2022-08-05T02:34:31.528Z,83.59
2022-08-05T02:35:33.283Z,83.89
2022-08-05T02:36:31.853Z,84.93
2022-08-05T02:37:32.038Z,85.43
2022-08-05T02:38:35.066Z,85.43
2022-08-05T02:39:31.592Z,85.63
2022-08-05T02:40:30.487Z,86.33
2022-08-05T02:41:42.937Z,86.87
2022-08-05T02:42:36.008Z,86.73
2022-08-05T02:43:30.435Z,87.27
2022-08-05T02:44:30.421Z,87.77
2022-08-05T02:45:52.706Z,88.52
2022-08-05T02:46:31.405Z,88.21
2022-08-05T02:47:36.556Z,88.87
2022-08-05T02:48:31.379Z,89.12
2022-08-05T02:49:36.624Z,89.32
2022-08-05T02:50:31.396Z,89.22
2022-08-05T02:52:03.139Z,89.52
2022-08-05T02:52:31.325Z,90.36
2022-08-05T02:53:39.628Z,90.06
2022-08-05T02:54:36.127Z,90.26
2022-08-05T02:55:53.982Z,90.50
2022-08-05T02:56:31.296Z,91.06
2022-08-05T02:58:10.567Z,90.77
2022-08-05T02:58:31.265Z,90.91
2022-08-05T02:59:30.256Z,91.61
2022-08-05T03:00:31.243Z,91.51
2022-08-05T03:01:30.330Z,91.51
2022-08-05T03:02:30.215Z,91.61
2022-08-05T03:03:33.720Z,91.25
2022-08-05T03:04:30.193Z,91.75
2022-08-05T03:06:55.958Z,91.35
2022-08-05T03:06:56.393Z,91.35
2022-08-05T03:07:59.285Z,92.05
2022-08-05T03:08:31.152Z,91.96
2022-08-05T03:09:38.214Z,92.05
2022-08-05T03:10:31.129Z,92.25
2022-08-05T03:11:56.372Z,91.96
2022-08-05T03:12:31.103Z,91.65
2022-08-05T03:13:52.069Z,91.75
2022-08-05T03:14:31.080Z,91.75
2022-08-05T03:15:30.078Z,91.75
2022-08-05T03:16:30.065Z,92.05
2022-08-05T03:17:30.061Z,92.25
2022-08-05T03:18:30.745Z,92.15
2022-08-05T03:19:33.763Z,92.80
2022-08-05T03:20:31.012Z,91.75
2022-08-05T03:21:33.182Z,91.96
2022-08-05T03:22:32.257Z,91.75
2022-08-05T03:23:29.987Z,91.69
2022-08-05T03:24:30.798Z,91.65
2022-08-05T03:25:59.746Z,91.96
2022-08-05T03:26:32.409Z,91.65
2022-08-05T03:27:39.509Z,92.05
2022-08-05T03:28:30.929Z,91.15
2022-08-05T03:29:45.535Z,91.45
2022-08-05T03:30:34.255Z,91.25
2022-08-05T03:31:56.912Z,91.85
2022-08-05T03:32:31.428Z,91.39
2022-08-05T03:33:42.173Z,91.89
2022-08-05T03:34:30.855Z,91.80
2022-08-05T03:35:29.848Z,91.39
2022-08-05T03:36:30.374Z,92.30
2022-08-05T03:37:29.835Z,92.70
2022-08-05T03:38:33.405Z,92.65
2022-08-05T03:39:34.128Z,92.84
2022-08-05T03:40:32.342Z,93.74
2022-08-05T03:41:33.312Z,92.84
2022-08-05T03:42:32.148Z,93.35
2022-08-05T03:44:08.996Z,93.44
2022-08-05T03:44:30.754Z,93.70
2022-08-05T03:45:29.739Z,94.05
2022-08-05T03:46:32.622Z,93.44
2022-08-05T03:47:35.116Z,93.55
2022-08-05T03:48:30.697Z,93.24
2022-08-05T03:49:31.053Z,94.55
2022-08-05T03:50:30.676Z,93.44
2022-08-05T03:52:36.629Z,93.74
2022-08-05T03:52:48.553Z,93.49
2022-08-05T03:55:51.364Z,93.79
2022-08-05T03:55:53.957Z,93.59
2022-08-05T03:56:05.427Z,94.20
2022-08-05T03:56:34.801Z,94.20
2022-08-05T03:57:41.641Z,94.70
2022-08-05T03:58:30.585Z,94.59
2022-08-05T03:59:47.682Z,94.54
2022-08-05T04:00:30.680Z,95.04
2022-08-05T04:01:32.311Z,96.04
2022-08-05T04:02:37.512Z,95.64
2022-08-05T04:03:30.531Z,95.75
2022-08-05T04:04:29.530Z,95.84
2022-08-05T04:05:33.332Z,96.15
2022-08-05T04:06:29.503Z,96.45
2022-08-05T04:07:29.509Z,96.04
2022-08-05T04:08:35.088Z,96.95
2022-08-05T04:09:30.470Z,96.55
2022-08-05T04:10:37.587Z,96.59
2022-08-05T04:11:47.602Z,96.50
2022-08-05T04:12:30.452Z,96.59
2022-08-05T04:13:50.170Z,96.95
2022-08-05T04:14:31.138Z,96.69
2022-08-05T04:15:33.141Z,96.89
2022-08-05T04:16:32.482Z,96.59
2022-08-05T04:17:55.483Z,97.00
2022-08-05T04:18:30.377Z,97.60
2022-08-05T04:19:29.375Z,97.40
2022-08-05T04:20:29.348Z,97.50
2022-08-05T04:22:10.164Z,97.70
2022-08-05T04:22:30.348Z,97.50
2022-08-05T04:23:57.389Z,97.30
2022-08-05T04:24:30.296Z,97.20
2022-08-05T04:25:57.805Z,97.60
2022-08-05T04:26:32.594Z,97.15
2022-08-05T04:27:41.769Z,98.10
2022-08-05T04:28:30.828Z,97.25
2022-08-05T04:29:29.246Z,96.95
2022-08-05T04:30:29.232Z,97.55
2022-08-05T04:31:38.473Z,97.30
2022-08-05T04:32:31.250Z,97.50
2022-08-05T04:33:54.707Z,96.95
2022-08-05T04:34:33.892Z,97.70
2022-08-05T04:36:10.962Z,97.15
2022-08-05T04:36:46.610Z,97.55
2022-08-05T04:38:02.385Z,97.25
2022-08-05T04:38:39.840Z,97.96
2022-08-05T04:39:30.203Z,97.15
2022-08-05T04:40:29.123Z,97.85
2022-08-05T04:41:36.919Z,97.96
2022-08-05T04:42:30.109Z,97.66
2022-08-05T04:43:29.092Z,98.05
2022-08-05T04:44:30.618Z,98.16
2022-08-05T04:45:48.408Z,97.91
2022-08-05T04:46:30.047Z,97.91
2022-08-05T04:47:29.050Z,97.81
2022-08-05T04:48:30.032Z,98.11
2022-08-05T04:49:39.260Z,97.81
2022-08-05T04:50:34.525Z,97.81
2022-08-05T04:51:30.391Z,97.81
2022-08-05T04:52:29.002Z,97.76
2022-08-05T04:53:28.976Z,97.86
2022-08-05T04:54:28.969Z,97.86
2022-08-05T04:56:14.768Z,97.76
2022-08-05T04:56:34.987Z,97.06
2022-08-05T04:57:29.941Z,97.56
2022-08-05T04:58:29.911Z,97.11
2022-08-05T04:59:36.725Z,97.16
2022-08-05T05:00:29.898Z,97.21
2022-08-05T05:01:33.539Z,97.52
2022-08-05T05:02:41.297Z,97.41
2022-08-05T05:03:41.949Z,97.36
2022-08-05T05:04:29.850Z,97.31
2022-08-05T05:05:29.352Z,97.02
2022-08-05T05:06:39.995Z,96.71
2022-08-05T05:07:32.123Z,96.31
2022-08-05T05:08:30.062Z,96.61
2022-08-05T05:09:28.854Z,96.26
2022-08-05T05:10:29.652Z,95.51
2022-08-05T05:11:42.179Z,95.71
2022-08-05T05:12:29.795Z,95.41
2022-08-05T05:13:32.452Z,95.91
2022-08-05T05:14:31.860Z,95.31
2022-08-05T05:15:56.369Z,95.41
2022-08-05T05:16:30.427Z,94.40
2022-08-05T05:17:56.779Z,94.81
2022-08-05T05:18:33.391Z,94.90
2022-08-05T05:19:37.264Z,94.20
2022-08-05T05:20:29.664Z,94.60
2022-08-05T05:21:28.654Z,94.40
2022-08-05T05:22:28.643Z,94.60
2022-08-05T05:24:02.286Z,94.71
2022-08-05T05:24:56.222Z,94.81
2022-08-05T05:25:32.827Z,94.51
2022-08-05T05:26:32.983Z,94.40
2022-08-05T05:27:41.162Z,94.36
2022-08-05T05:28:29.595Z,94.31
2022-08-05T05:30:03.571Z,94.36
2022-08-05T05:30:33.416Z,95.01
2022-08-05T05:31:35.967Z,94.31
2022-08-05T05:32:28.538Z,94.36
2022-08-05T05:33:28.536Z,94.46
2022-08-05T05:34:29.508Z,94.26
2022-08-05T05:35:29.219Z,93.76
2022-08-05T05:36:29.900Z,94.46
2022-08-05T05:37:37.286Z,94.16
2022-08-05T05:38:29.485Z,93.96
2022-08-05T05:39:34.447Z,93.76
2022-08-05T05:40:29.440Z,93.11
2022-08-05T05:41:40.915Z,93.46
2022-08-05T05:42:29.466Z,92.81
2022-08-05T05:43:56.918Z,93.01
2022-08-05T05:44:37.749Z,93.91
2022-08-05T05:45:29.385Z,92.55
2022-08-05T05:46:28.382Z,92.71
2022-08-05T05:47:30.604Z,92.81
2022-08-05T05:48:29.373Z,92.47
2022-08-05T05:49:28.350Z,92.61
2022-08-05T05:50:28.340Z,92.41
2022-08-05T05:51:28.348Z,92.41
2022-08-05T05:52:32.801Z,92.41
2022-08-05T05:53:29.317Z,91.86
2022-08-05T05:54:50.506Z,92.21
2022-08-05T05:55:52.125Z,92.11
2022-08-05T05:56:33.047Z,92.11
2022-08-05T05:57:52.360Z,92.41
2022-08-05T05:58:31.587Z,92.11
2022-08-05T05:59:28.731Z,91.41
2022-08-05T06:00:31.788Z,91.61
2022-08-05T06:01:36.939Z,91.36
2022-08-05T06:02:32.539Z,91.86
2022-08-05T06:03:54.056Z,92.57
2022-08-05T06:04:29.212Z,92.27
2022-08-05T06:05:28.161Z,92.27
2022-08-05T06:06:31.101Z,91.36
2022-08-05T06:07:41.622Z,92.36
2022-08-05T06:08:31.839Z,92.16
2022-08-05T06:09:52.560Z,92.16
2022-08-05T06:10:29.447Z,92.52
2022-08-05T06:11:29.211Z,91.56
2022-08-05T06:12:28.082Z,91.32
2022-08-05T06:13:28.088Z,91.47
2022-08-05T06:14:29.190Z,91.47
2022-08-05T06:16:29.030Z,91.52
2022-08-05T06:16:36.889Z,90.86
2022-08-05T06:17:53.360Z,91.47
2022-08-05T06:18:31.451Z,91.42
2022-08-05T06:19:34.478Z,91.22
2022-08-05T06:20:28.998Z,91.12
2022-08-05T06:21:35.967Z,91.12
2022-08-05T06:22:28.970Z,91.12
2022-08-05T06:23:27.970Z,91.12
2022-08-05T06:24:28.946Z,90.92
2022-08-05T06:26:13.927Z,90.92
2022-08-05T06:26:31.898Z,90.72
2022-08-05T06:28:12.550Z,90.62
2022-08-05T06:28:28.938Z,90.92
2022-08-05T06:29:48.863Z,90.52
2022-08-05T06:30:28.879Z,90.62
2022-08-05T06:31:30.637Z,91.22
2022-08-05T06:32:29.229Z,90.72
2022-08-05T06:34:06.110Z,90.16
2022-08-05T06:34:28.834Z,89.62
2022-08-05T06:36:03.694Z,89.96
2022-08-05T06:36:28.812Z,89.56
2022-08-05T06:37:39.396Z,90.26
2022-08-05T06:38:35.908Z,90.36
2022-08-05T06:39:28.848Z,90.06
2022-08-05T06:40:32.621Z,90.77
2022-08-05T06:41:28.762Z,90.66
2022-08-05T06:42:28.745Z,90.26
2022-08-05T06:43:51.527Z,90.56
2022-08-05T06:44:28.732Z,90.66
2022-08-05T06:46:02.929Z,90.46
2022-08-05T06:46:30.240Z,89.96
2022-08-05T06:48:11.418Z,90.66
2022-08-05T06:48:52.731Z,90.66
2022-08-05T06:50:00.193Z,90.46
2022-08-05T06:50:28.656Z,90.86
2022-08-05T06:51:29.304Z,90.52
2022-08-05T06:52:37.712Z,90.82
2022-08-05T06:53:29.318Z,90.92
2022-08-05T06:54:27.618Z,90.52
2022-08-05T06:55:27.606Z,90.66
2022-08-05T06:56:27.606Z,90.62
2022-08-05T06:57:57.786Z,90.12
2022-08-05T06:58:29.946Z,89.42
2022-08-05T06:59:28.553Z,89.76
2022-08-05T07:00:29.583Z,89.76
2022-08-05T07:01:32.774Z,90.32
2022-08-05T07:02:28.521Z,90.16
2022-08-05T07:03:32.525Z,90.26
2022-08-05T07:04:28.507Z,90.06
2022-08-05T07:05:36.922Z,89.96
2022-08-05T07:06:28.532Z,90.36
2022-08-05T07:07:35.385Z,90.06
2022-08-05T07:08:28.472Z,90.36
2022-08-05T07:09:27.453Z,90.26
2022-08-05T07:10:32.337Z,90.06
2022-08-05T07:11:28.098Z,89.32
2022-08-05T07:12:27.526Z,89.12
2022-08-05T07:13:57.241Z,88.32
2022-08-05T07:14:29.729Z,87.87
2022-08-05T07:15:34.538Z,87.37
2022-08-05T07:17:58.981Z,87.27
2022-08-05T07:18:00.303Z,87.68
2022-08-05T07:18:30.022Z,87.27
2022-08-05T07:19:57.978Z,87.77
2022-08-05T07:20:33.862Z,87.48
2022-08-05T07:21:28.307Z,87.87
2022-08-05T07:22:30.191Z,87.57
2022-08-05T07:23:29.690Z,87.48
2022-08-05T07:24:28.717Z,87.48
2022-08-05T07:25:55.102Z,87.57
2022-08-05T07:26:28.255Z,87.57
2022-08-05T07:27:58.047Z,87.87
2022-08-05T07:28:28.243Z,88.18
2022-08-05T07:30:23.864Z,88.42
2022-08-05T07:30:32.694Z,87.62
2022-08-05T07:31:53.923Z,87.71
2022-08-05T07:32:28.186Z,87.82
2022-08-05T07:33:36.762Z,88.62
2022-08-05T07:34:28.773Z,88.92
2022-08-05T07:36:03.258Z,88.32
2022-08-05T07:36:28.151Z,88.92
2022-08-05T07:37:29.196Z,88.82
2022-08-05T07:38:33.357Z,88.62
2022-08-05T07:40:04.716Z,88.71
2022-08-05T07:40:33.123Z,88.12
2022-08-05T07:42:08.331Z,88.96
2022-08-05T07:42:33.691Z,88.96
2022-08-05T07:43:28.086Z,88.42
2022-08-05T07:44:27.053Z,88.56
2022-08-05T07:45:56.668Z,88.36
2022-08-05T07:46:28.037Z,87.66
2022-08-05T07:47:27.023Z,88.52
2022-08-05T07:49:02.475Z,88.96
2022-08-05T07:49:27.997Z,89.02
2022-08-05T07:50:32.366Z,88.52
2022-08-05T07:51:37.044Z,88.26
2022-08-05T07:52:27.977Z,88.52
2022-08-05T07:53:26.969Z,88.52
2022-08-05T07:54:31.718Z,89.06
2022-08-05T07:56:04.894Z,88.92
2022-08-05T07:57:01.413Z,88.92
2022-08-05T07:57:51.383Z,88.06
2022-08-05T07:58:57.756Z,88.42
2022-08-05T07:59:38.840Z,88.86
2022-08-05T08:00:27.880Z,88.12
2022-08-05T08:01:26.931Z,88.82
2022-08-05T08:02:31.255Z,89.06
2022-08-05T08:03:44.535Z,88.96
2022-08-05T08:04:37.386Z,88.82
2022-08-05T08:05:27.838Z,88.82
2022-08-05T08:06:28.313Z,89.46
2022-08-05T08:07:28.418Z,89.46
2022-08-05T08:08:26.800Z,89.52
2022-08-05T08:09:26.781Z,89.46
2022-08-05T08:10:26.774Z,89.16
2022-08-05T08:11:27.803Z,89.76
2022-08-05T08:12:48.866Z,89.96
2022-08-05T08:13:28.958Z,90.26
2022-08-05T08:14:26.724Z,90.36
2022-08-05T08:16:34.007Z,90.36
2022-08-05T08:16:34.667Z,90.46
2022-08-05T08:17:27.800Z,90.56
2022-08-05T08:18:26.695Z,90.61
2022-08-05T08:20:43.057Z,90.61
2022-08-05T08:20:44.175Z,90.66
2022-08-05T08:21:27.645Z,90.26
2022-08-05T08:22:26.902Z,90.66
2022-08-05T08:24:03.315Z,90.56
2022-08-05T08:24:51.498Z,90.66
2022-08-05T08:25:59.831Z,91.11
2022-08-05T08:26:30.000Z,91.51
2022-08-05T08:27:35.611Z,91.20
2022-08-05T08:28:36.547Z,90.96
2022-08-05T08:30:04.102Z,91.51
2022-08-05T08:30:37.662Z,92.11
2022-08-05T08:31:27.531Z,90.91
2022-08-05T08:32:28.151Z,90.20
2022-08-05T08:33:27.283Z,90.50
2022-08-05T08:34:30.694Z,90.11
2022-08-05T08:35:27.481Z,90.31
2022-08-05T08:36:38.451Z,90.20
2022-08-05T08:37:27.928Z,89.70
2022-08-05T08:38:35.631Z,89.61
2022-08-05T08:39:27.485Z,89.85
2022-08-05T08:40:26.439Z,90.55
2022-08-05T08:41:51.899Z,90.31
2022-08-05T08:42:50.609Z,90.45
2022-08-05T08:45:18.193Z,90.45
2022-08-05T08:45:18.291Z,90.15
2022-08-05T08:45:29.735Z,90.35
2022-08-05T08:46:26.368Z,90.75
2022-08-05T08:48:06.775Z,90.75
2022-08-05T08:48:43.025Z,90.95
2022-08-05T08:50:22.627Z,90.69
2022-08-05T08:50:51.973Z,90.75
2022-08-05T08:52:04.105Z,91.75
2022-08-05T08:52:27.517Z,91.25
2022-08-05T08:53:26.294Z,91.65
2022-08-05T08:54:27.524Z,90.99
2022-08-05T08:56:02.191Z,91.69
2022-08-05T08:56:27.339Z,91.30
2022-08-05T08:57:42.111Z,91.60
2022-08-05T08:58:37.562Z,91.39
2022-08-05T08:59:27.645Z,90.89
2022-08-05T09:00:27.311Z,90.89
2022-08-05T09:01:26.224Z,90.79
2022-08-05T09:02:26.883Z,90.79
2022-08-05T09:03:26.185Z,90.79
2022-08-05T09:04:30.649Z,90.69
2022-08-05T09:05:38.395Z,90.89
2022-08-05T09:06:29.156Z,90.84
2022-08-05T09:07:28.752Z,91.14
2022-08-05T09:08:26.557Z,90.84
2022-08-05T09:09:34.574Z,90.73
2022-08-05T09:10:27.803Z,90.64
2022-08-05T09:11:51.835Z,91.24
2022-08-05T09:12:27.898Z,90.94
2022-08-05T09:13:31.792Z,90.84
2022-08-05T09:14:56.411Z,90.53
2022-08-05T09:15:27.041Z,91.64
2022-08-05T09:16:26.962Z,91.50
2022-08-05T09:17:42.323Z,91.64
2022-08-05T09:18:27.019Z,92.04
2022-08-05T09:19:27.864Z,91.44
2022-08-05T09:20:37.477Z,91.80
2022-08-05T09:22:23.072Z,91.74
2022-08-05T09:22:32.151Z,91.24
2022-08-05T09:23:27.201Z,90.64
2022-08-05T09:24:25.932Z,90.73
2022-08-05T09:26:00.857Z,90.64
2022-08-05T09:26:32.322Z,90.84
2022-08-05T09:28:03.779Z,90.64
2022-08-05T09:28:32.246Z,90.73
2022-08-05T09:29:30.938Z,90.73
2022-08-05T09:30:25.870Z,90.73
2022-08-05T09:32:39.147Z,90.59
2022-08-05T09:32:41.756Z,90.49
2022-08-05T09:33:35.209Z,89.94
2022-08-05T09:34:26.824Z,89.79
2022-08-05T09:35:26.612Z,89.79
2022-08-05T09:36:27.459Z,88.68
2022-08-05T09:38:16.694Z,88.99
2022-08-05T09:38:29.467Z,88.99
2022-08-05T09:39:41.550Z,88.89
2022-08-05T09:40:26.795Z,88.48
2022-08-05T09:41:25.741Z,88.79
2022-08-05T09:42:28.477Z,88.14
2022-08-05T09:43:25.739Z,87.64
2022-08-05T09:44:25.714Z,87.84
2022-08-05T09:46:06.414Z,87.60
2022-08-05T09:46:27.260Z,87.34
2022-08-05T09:47:25.683Z,87.30
2022-08-05T09:48:27.009Z,87.50
2022-08-05T09:49:40.271Z,87.60
2022-08-05T09:50:38.217Z,86.94
2022-08-05T09:51:26.629Z,87.30
2022-08-05T09:52:26.027Z,87.20
2022-08-05T09:53:25.999Z,87.00
2022-08-05T09:54:29.365Z,86.80
2022-08-05T09:55:56.506Z,86.44
2022-08-05T09:56:26.574Z,86.94
2022-08-05T09:57:25.570Z,86.44
2022-08-05T09:58:25.687Z,86.84
2022-08-05T09:59:27.767Z,87.04
2022-08-05T10:00:25.535Z,86.98
2022-08-05T10:01:32.257Z,86.98
2022-08-05T10:02:26.828Z,86.98
2022-08-05T10:03:25.518Z,87.58
2022-08-05T10:04:28.592Z,87.48
2022-08-05T10:05:26.779Z,87.38
2022-08-05T10:06:25.468Z,87.58
2022-08-05T10:08:10.433Z,87.78
2022-08-05T10:08:37.339Z,87.68
2022-08-05T10:09:29.355Z,88.09
2022-08-05T10:10:28.171Z,87.78
2022-08-05T10:11:31.270Z,87.28
2022-08-05T10:12:33.339Z,87.93
2022-08-05T10:13:26.405Z,87.73
2022-08-05T10:14:26.761Z,88.73
2022-08-05T10:15:25.826Z,89.03
2022-08-05T10:16:25.356Z,90.03
2022-08-05T10:17:38.078Z,89.03
2022-08-05T10:18:26.346Z,88.93
2022-08-05T10:20:03.032Z,89.13
2022-08-05T10:20:26.310Z,88.89
2022-08-05T10:21:25.308Z,88.93
2022-08-05T10:22:29.833Z,88.63
2022-08-05T10:23:56.195Z,88.63
2022-08-05T10:24:27.029Z,89.03
2022-08-05T10:25:25.255Z,88.73
2022-08-05T10:26:32.565Z,88.23
2022-08-05T10:28:09.576Z,87.93
2022-08-05T10:28:29.083Z,87.93
2022-08-05T10:30:41.842Z,87.82
2022-08-05T10:31:20.392Z,87.82
2022-08-05T10:32:53.761Z,87.78
2022-08-05T10:32:55.767Z,87.98
2022-08-05T10:33:28.796Z,87.22
2022-08-05T10:34:25.686Z,87.42
2022-08-05T10:35:40.391Z,87.32
2022-08-05T10:36:26.359Z,86.72
2022-08-05T10:37:26.694Z,87.12
2022-08-05T10:38:26.218Z,86.88
2022-08-05T10:39:59.301Z,86.82
2022-08-05T10:40:28.279Z,85.78
2022-08-05T10:41:25.069Z,85.68
2022-08-05T10:42:33.545Z,84.88
2022-08-05T10:43:31.098Z,85.68
2022-08-05T10:44:26.046Z,85.68
2022-08-05T10:45:40.164Z,85.68
2022-08-05T10:46:26.010Z,85.63
2022-08-05T10:47:26.497Z,85.17
2022-08-05T10:48:31.376Z,85.13
2022-08-05T10:49:27.112Z,85.24
2022-08-05T10:50:36.189Z,85.03
2022-08-05T10:51:29.313Z,85.13
2022-08-05T10:52:25.186Z,84.63
2022-08-05T10:53:24.951Z,85.03
2022-08-05T10:54:29.959Z,84.93
2022-08-05T10:55:25.920Z,84.79
2022-08-05T10:56:26.054Z,84.13
2022-08-05T10:57:24.895Z,83.89
2022-08-05T10:58:47.727Z,83.89
2022-08-05T11:00:04.150Z,83.29
2022-08-05T11:00:25.861Z,82.79
2022-08-05T11:01:28.525Z,83.49
2022-08-05T11:02:38.007Z,82.29
2022-08-05T11:03:26.865Z,82.15
2022-08-05T11:04:26.281Z,81.85
2022-08-05T11:05:28.834Z,81.55
2022-08-05T11:06:30.923Z,80.54
2022-08-05T11:07:33.316Z,80.85
2022-08-05T11:08:37.212Z,80.54
2022-08-05T11:09:45.087Z,79.91
2022-08-05T11:10:27.641Z,79.30
2022-08-05T11:11:24.740Z,78.47
2022-08-05T11:12:26.096Z,78.36
2022-08-05T11:13:24.723Z,76.67
2022-08-05T11:14:42.878Z,76.67
2022-08-05T11:15:44.047Z,76.33
2022-08-05T11:16:33.944Z,76.26
2022-08-05T11:17:59.952Z,75.73
2022-08-05T11:18:25.671Z,76.33
2022-08-05T11:20:10.007Z,77.83
2022-08-05T11:20:25.636Z,76.83
2022-08-05T11:21:24.628Z,76.33
2022-08-05T11:22:24.608Z,76.19
2022-08-05T11:23:25.335Z,77.49
2022-08-05T11:24:30.163Z,76.15
2022-08-05T11:26:06.035Z,76.15
2022-08-05T11:26:28.973Z,76.76
2022-08-05T11:27:25.828Z,76.22
2022-08-05T11:28:24.554Z,76.48
2022-08-05T11:29:24.532Z,76.34
2022-08-05T11:30:24.530Z,74.35
2022-08-05T11:31:56.930Z,74.51
2022-08-05T11:32:25.504Z,73.28
2022-08-05T11:33:24.498Z,72.55
2022-08-05T11:34:26.142Z,71.22
2022-08-05T11:35:24.471Z,69.92
2022-08-05T11:36:34.237Z,70.95
2022-08-05T11:38:29.217Z,70.36
2022-08-05T11:38:30.741Z,70.39
2022-08-05T11:39:25.465Z,70.16
2022-08-05T11:40:24.417Z,69.69
2022-08-05T11:41:54.469Z,69.92
2022-08-05T11:42:28.077Z,70.09
2022-08-05T11:44:00.722Z,69.69
2022-08-05T11:44:53.432Z,70.29
2022-08-05T11:46:27.547Z,70.45
2022-08-05T11:46:32.796Z,69.62
2022-08-05T11:47:48.815Z,68.63
2022-08-05T11:48:25.339Z,69.09
2022-08-05T11:49:24.317Z,68.10
2022-08-05T11:50:25.133Z,68.20
2022-08-05T11:51:43.715Z,68.00
2022-08-05T11:52:29.012Z,67.73
2022-08-05T11:53:24.290Z,67.10
2022-08-05T11:54:24.257Z,67.20
2022-08-05T11:55:31.725Z,67.20
2022-08-05T11:56:40.922Z,67.60
2022-08-05T11:57:39.360Z,66.97
2022-08-05T11:58:25.228Z,67.37
2022-08-05T11:59:24.196Z,66.94
2022-08-05T12:00:24.180Z,66.91
2022-08-05T12:01:24.175Z,65.09
2022-08-05T12:02:31.252Z,64.76
2022-08-05T12:03:31.639Z,63.96
2022-08-05T12:04:25.137Z,64.33
2022-08-05T12:05:28.852Z,63.13
2022-08-05T12:06:25.113Z,63.01
2022-08-05T12:08:08.028Z,62.91
2022-08-05T12:08:25.113Z,62.88
2022-08-05T12:09:24.091Z,62.15
2022-08-05T12:10:25.075Z,61.86
2022-08-05T12:11:28.244Z,61.36
2022-08-05T12:12:25.846Z,60.67
2022-08-05T12:13:47.616Z,60.14
2022-08-05T12:14:25.027Z,60.74
2022-08-05T12:15:35.727Z,59.72
2022-08-05T12:16:25.683Z,59.92
2022-08-05T12:18:03.375Z,59.00
2022-08-05T12:18:27.451Z,59.00
2022-08-05T12:20:26.718Z,58.67
2022-08-05T12:20:28.787Z,56.67
2022-08-05T12:21:24.949Z,56.57
2022-08-05T12:22:23.948Z,56.46
2022-08-05T12:23:23.948Z,57.95
2022-08-05T12:24:24.628Z,56.17
2022-08-05T12:25:28.217Z,56.17
2022-08-05T12:26:24.068Z,55.97
2022-08-05T12:27:25.300Z,56.49
2022-08-05T12:28:23.895Z,56.89
2022-08-05T12:29:24.862Z,56.67
2022-08-05T12:30:23.858Z,56.30
2022-08-05T12:31:33.544Z,56.30
2022-08-05T12:32:24.835Z,56.42
2022-08-05T12:33:27.297Z,56.05
2022-08-05T12:34:25.707Z,56.65
2022-08-05T12:35:24.746Z,56.87
2022-08-05T12:36:24.832Z,57.17
2022-08-05T12:37:23.827Z,57.46
2022-08-05T12:38:30.196Z,58.23
2022-08-05T12:39:34.348Z,58.73
2022-08-05T12:40:26.669Z,56.65
2022-08-05T12:41:23.742Z,56.92
2022-08-05T12:42:25.205Z,56.72
2022-08-05T12:43:23.731Z,57.02
2022-08-05T12:44:32.620Z,57.34
2022-08-05T12:45:42.549Z,56.55
2022-08-05T12:46:29.021Z,58.43
2022-08-05T12:47:24.811Z,58.43
2022-08-05T12:48:32.466Z,58.46
2022-08-05T12:49:25.632Z,58.75
2022-08-05T12:50:24.630Z,57.99
2022-08-05T12:52:13.900Z,57.40
2022-08-05T12:52:29.580Z,57.82